sensor_id;sensor_type;location;lat;lon;timestamp;temperature;humidity
61412;DHT22;47278;49.732;7.690;2023-05-07T00:02:02;11.40;99.90
61412;DHT22;47278;49.732;7.690;2023-05-07T00:04:29;11.50;99.90
61412;DHT22;47278;49.732;7.690;2023-05-07T00:07:01;11.60;99.90
61412;DHT22;47278;49.732;7.690;2023-05-07T00:09:26;11.40;99.90
61412;DHT22;47278;49.732;7.690;2023-05-07T00:11:52;11.30;99.90
61412;DHT22;47278;49.732;7.690;2023-05-07T00:14:17;11.30;99.90
61412;DHT22;47278;49.732;7.690;2023-05-07T00:16:43;11.30;99.90
61412;DHT22;47278;49.732;7.690;2023-05-07T00:19:09;11.30;99.90
61412;DHT22;47278;49.732;7.690;2023-05-07T00:21:34;11.20;99.90
61412;DHT22;47278;49.732;7.690;2023-05-07T00:24:00;11.10;99.90
61412;DHT22;47278;49.732;7.690;2023-05-07T00:26:25;11.10;99.90
61412;DHT22;47278;49.732;7.690;2023-05-07T00:28:51;11.10;99.90
61412;DHT22;47278;49.732;7.690;2023-05-07T00:31:16;11.10;99.90
61412;DHT22;47278;49.732;7.690;2023-05-07T00:33:43;11.10;99.90
61412;DHT22;47278;49.732;7.690;2023-05-07T00:36:08;11.00;99.90
61412;DHT22;47278;49.732;7.690;2023-05-07T00:38:34;11.00;99.90
61412;DHT22;47278;49.732;7.690;2023-05-07T00:40:59;11.00;99.90
61412;DHT22;47278;49.732;7.690;2023-05-07T00:43:25;11.00;99.90
61412;DHT22;47278;49.732;7.690;2023-05-07T00:45:50;11.00;99.90
61412;DHT22;47278;49.732;7.690;2023-05-07T00:48:17;10.90;99.90
61412;DHT22;47278;49.732;7.690;2023-05-07T00:50:43;10.80;99.90
61412;DHT22;47278;49.732;7.690;2023-05-07T00:53:11;10.90;99.90
61412;DHT22;47278;49.732;7.690;2023-05-07T00:55:36;10.90;99.90
61412;DHT22;47278;49.732;7.690;2023-05-07T00:58:02;10.70;99.90
61412;DHT22;47278;49.732;7.690;2023-05-07T01:00:29;10.70;99.90
61412;DHT22;47278;49.732;7.690;2023-05-07T01:02:54;10.60;99.90
61412;DHT22;47278;49.732;7.690;2023-05-07T01:05:22;10.60;99.90
61412;DHT22;47278;49.732;7.690;2023-05-07T01:07:48;10.60;99.90
61412;DHT22;47278;49.732;7.690;2023-05-07T01:10:15;10.60;99.90
61412;DHT22;47278;49.732;7.690;2023-05-07T01:12:41;10.40;99.90
61412;DHT22;47278;49.732;7.690;2023-05-07T01:15:08;10.40;99.90
61412;DHT22;47278;49.732;7.690;2023-05-07T01:17:35;10.30;99.90
61412;DHT22;47278;49.732;7.690;2023-05-07T01:20:00;10.30;99.90
61412;DHT22;47278;49.732;7.690;2023-05-07T01:22:29;10.30;99.90
61412;DHT22;47278;49.732;7.690;2023-05-07T01:24:56;9.00;99.90
61412;DHT22;47278;49.732;7.690;2023-05-07T01:27:22;10.30;99.90
61412;DHT22;47278;49.732;7.690;2023-05-07T01:29:47;10.20;99.90
61412;DHT22;47278;49.732;7.690;2023-05-07T01:35:18;11.00;99.90
61412;DHT22;47278;49.732;7.690;2023-05-07T01:37:44;10.30;99.90
61412;DHT22;47278;49.732;7.690;2023-05-07T01:40:11;10.30;99.90
61412;DHT22;47278;49.732;7.690;2023-05-07T01:42:36;10.30;99.90
61412;DHT22;47278;49.732;7.690;2023-05-07T01:45:02;10.20;99.90
61412;DHT22;47278;49.732;7.690;2023-05-07T01:47:28;10.10;99.90
61412;DHT22;47278;49.732;7.690;2023-05-07T01:49:54;10.10;99.90
61412;DHT22;47278;49.732;7.690;2023-05-07T01:52:20;10.10;99.90
61412;DHT22;47278;49.732;7.690;2023-05-07T01:54:46;10.10;99.90
61412;DHT22;47278;49.732;7.690;2023-05-07T01:57:11;10.10;99.90
61412;DHT22;47278;49.732;7.690;2023-05-07T01:59:37;10.00;99.90
61412;DHT22;47278;49.732;7.690;2023-05-07T02:02:02;9.90;99.90
61412;DHT22;47278;49.732;7.690;2023-05-07T02:04:28;9.80;99.90
61412;DHT22;47278;49.732;7.690;2023-05-07T02:06:53;9.80;99.90
61412;DHT22;47278;49.732;7.690;2023-05-07T02:09:19;9.80;99.90
61412;DHT22;47278;49.732;7.690;2023-05-07T02:11:45;9.80;99.90
61412;DHT22;47278;49.732;7.690;2023-05-07T02:14:10;9.90;99.90
61412;DHT22;47278;49.732;7.690;2023-05-07T02:16:36;9.80;99.90
61412;DHT22;47278;49.732;7.690;2023-05-07T02:19:01;9.80;99.90
61412;DHT22;47278;49.732;7.690;2023-05-07T02:21:27;9.80;99.90
61412;DHT22;47278;49.732;7.690;2023-05-07T02:23:52;9.80;99.90
61412;DHT22;47278;49.732;7.690;2023-05-07T02:26:18;9.80;99.90
61412;DHT22;47278;49.732;7.690;2023-05-07T02:28:43;9.90;99.90
61412;DHT22;47278;49.732;7.690;2023-05-07T02:31:09;10.00;99.90
61412;DHT22;47278;49.732;7.690;2023-05-07T02:33:35;10.00;99.90
61412;DHT22;47278;49.732;7.690;2023-05-07T02:36:05;10.10;99.90
61412;DHT22;47278;49.732;7.690;2023-05-07T02:38:30;10.10;99.90
61412;DHT22;47278;49.732;7.690;2023-05-07T02:40:56;10.10;99.90
61412;DHT22;47278;49.732;7.690;2023-05-07T02:43:21;10.20;99.90
61412;DHT22;47278;49.732;7.690;2023-05-07T02:45:47;10.20;99.90
61412;DHT22;47278;49.732;7.690;2023-05-07T02:48:12;10.20;99.90
61412;DHT22;47278;49.732;7.690;2023-05-07T02:50:38;10.20;99.90
61412;DHT22;47278;49.732;7.690;2023-05-07T02:53:03;10.30;99.90
61412;DHT22;47278;49.732;7.690;2023-05-07T02:55:29;10.20;99.90
61412;DHT22;47278;49.732;7.690;2023-05-07T02:57:55;10.30;99.90
61412;DHT22;47278;49.732;7.690;2023-05-07T03:00:20;10.30;99.90
61412;DHT22;47278;49.732;7.690;2023-05-07T03:02:46;10.20;99.90
61412;DHT22;47278;49.732;7.690;2023-05-07T03:05:12;10.20;99.90
61412;DHT22;47278;49.732;7.690;2023-05-07T03:07:37;10.20;99.90
61412;DHT22;47278;49.732;7.690;2023-05-07T03:10:03;10.10;99.90
61412;DHT22;47278;49.732;7.690;2023-05-07T03:12:29;10.10;99.90
61412;DHT22;47278;49.732;7.690;2023-05-07T03:14:55;9.90;99.90
61412;DHT22;47278;49.732;7.690;2023-05-07T03:17:21;9.90;99.90
61412;DHT22;47278;49.732;7.690;2023-05-07T03:19:46;9.90;99.90
61412;DHT22;47278;49.732;7.690;2023-05-07T03:22:12;9.90;99.90
61412;DHT22;47278;49.732;7.690;2023-05-07T03:24:37;9.90;99.90
61412;DHT22;47278;49.732;7.690;2023-05-07T03:27:03;9.90;99.90
61412;DHT22;47278;49.732;7.690;2023-05-07T03:29:28;9.80;99.90
61412;DHT22;47278;49.732;7.690;2023-05-07T03:31:54;9.70;99.90
61412;DHT22;47278;49.732;7.690;2023-05-07T03:34:19;9.80;99.90
61412;DHT22;47278;49.732;7.690;2023-05-07T03:36:49;9.80;99.90
61412;DHT22;47278;49.732;7.690;2023-05-07T03:39:15;9.70;99.90
61412;DHT22;47278;49.732;7.690;2023-05-07T03:41:40;9.60;99.90
61412;DHT22;47278;49.732;7.690;2023-05-07T03:44:06;9.50;99.90
61412;DHT22;47278;49.732;7.690;2023-05-07T03:46:32;9.50;99.90
61412;DHT22;47278;49.732;7.690;2023-05-07T03:48:58;9.50;99.90
61412;DHT22;47278;49.732;7.690;2023-05-07T03:51:23;9.50;99.90
61412;DHT22;47278;49.732;7.690;2023-05-07T03:53:49;9.60;99.90
61412;DHT22;47278;49.732;7.690;2023-05-07T03:56:15;9.60;99.90
61412;DHT22;47278;49.732;7.690;2023-05-07T03:58:40;9.60;99.90
61412;DHT22;47278;49.732;7.690;2023-05-07T04:01:06;9.60;99.90
61412;DHT22;47278;49.732;7.690;2023-05-07T04:03:32;9.70;99.90
61412;DHT22;47278;49.732;7.690;2023-05-07T04:05:58;9.60;99.90
61412;DHT22;47278;49.732;7.690;2023-05-07T04:08:25;9.50;99.90
61412;DHT22;47278;49.732;7.690;2023-05-07T04:10:54;9.50;99.90
61412;DHT22;47278;49.732;7.690;2023-05-07T04:13:20;9.60;99.90
61412;DHT22;47278;49.732;7.690;2023-05-07T04:15:45;9.60;99.90
61412;DHT22;47278;49.732;7.690;2023-05-07T04:18:11;9.60;99.90
61412;DHT22;47278;49.732;7.690;2023-05-07T04:20:37;9.50;99.90
61412;DHT22;47278;49.732;7.690;2023-05-07T04:23:02;9.40;99.90
61412;DHT22;47278;49.732;7.690;2023-05-07T04:25:28;9.30;99.90
61412;DHT22;47278;49.732;7.690;2023-05-07T04:27:53;9.30;99.90
61412;DHT22;47278;49.732;7.690;2023-05-07T04:30:19;9.30;99.90
61412;DHT22;47278;49.732;7.690;2023-05-07T04:32:44;9.40;99.90
61412;DHT22;47278;49.732;7.690;2023-05-07T04:35:10;9.40;99.90
61412;DHT22;47278;49.732;7.690;2023-05-07T04:37:36;9.40;99.90
61412;DHT22;47278;49.732;7.690;2023-05-07T04:40:01;7.50;99.90
61412;DHT22;47278;49.732;7.690;2023-05-07T04:42:28;9.40;99.90
61412;DHT22;47278;49.732;7.690;2023-05-07T04:44:53;9.40;99.90
61412;DHT22;47278;49.732;7.690;2023-05-07T04:47:20;9.40;99.90
61412;DHT22;47278;49.732;7.690;2023-05-07T04:49:46;9.40;99.90
61412;DHT22;47278;49.732;7.690;2023-05-07T04:52:11;9.50;99.90
61412;DHT22;47278;49.732;7.690;2023-05-07T04:54:37;9.50;99.90
61412;DHT22;47278;49.732;7.690;2023-05-07T04:57:05;9.60;99.90
61412;DHT22;47278;49.732;7.690;2023-05-07T04:59:31;9.70;99.90
61412;DHT22;47278;49.732;7.690;2023-05-07T05:01:57;9.80;99.90
61412;DHT22;47278;49.732;7.690;2023-05-07T05:04:23;9.80;99.90
61412;DHT22;47278;49.732;7.690;2023-05-07T05:06:48;9.90;99.90
61412;DHT22;47278;49.732;7.690;2023-05-07T05:09:14;10.00;99.90
61412;DHT22;47278;49.732;7.690;2023-05-07T05:11:41;10.10;99.90
61412;DHT22;47278;49.732;7.690;2023-05-07T05:14:06;10.20;99.90
61412;DHT22;47278;49.732;7.690;2023-05-07T05:16:32;10.20;99.90
61412;DHT22;47278;49.732;7.690;2023-05-07T05:18:58;10.30;99.90
61412;DHT22;47278;49.732;7.690;2023-05-07T05:21:23;10.40;99.90
61412;DHT22;47278;49.732;7.690;2023-05-07T05:23:49;10.50;99.90
61412;DHT22;47278;49.732;7.690;2023-05-07T05:26:14;10.60;99.90
61412;DHT22;47278;49.732;7.690;2023-05-07T05:28:40;10.60;99.90
61412;DHT22;47278;49.732;7.690;2023-05-07T05:31:05;10.60;99.90
61412;DHT22;47278;49.732;7.690;2023-05-07T05:33:31;10.60;99.90
61412;DHT22;47278;49.732;7.690;2023-05-07T05:35:57;10.60;99.90
61412;DHT22;47278;49.732;7.690;2023-05-07T05:38:22;10.70;99.90
61412;DHT22;47278;49.732;7.690;2023-05-07T05:40:48;10.80;99.90
61412;DHT22;47278;49.732;7.690;2023-05-07T05:43:13;11.00;99.90
61412;DHT22;47278;49.732;7.690;2023-05-07T05:45:39;11.10;99.90
61412;DHT22;47278;49.732;7.690;2023-05-07T05:48:05;11.20;99.90
61412;DHT22;47278;49.732;7.690;2023-05-07T05:50:31;11.30;99.90
61412;DHT22;47278;49.732;7.690;2023-05-07T05:52:56;11.40;99.90
61412;DHT22;47278;49.732;7.690;2023-05-07T05:55:23;11.60;99.90
61412;DHT22;47278;49.732;7.690;2023-05-07T05:57:49;11.70;99.90
61412;DHT22;47278;49.732;7.690;2023-05-07T06:00:15;11.80;99.90
61412;DHT22;47278;49.732;7.690;2023-05-07T06:02:41;11.80;99.90
61412;DHT22;47278;49.732;7.690;2023-05-07T06:05:08;11.80;99.90
61412;DHT22;47278;49.732;7.690;2023-05-07T06:07:33;11.90;99.90
61412;DHT22;47278;49.732;7.690;2023-05-07T06:10:00;12.00;99.90
61412;DHT22;47278;49.732;7.690;2023-05-07T06:12:25;11.90;99.90
61412;DHT22;47278;49.732;7.690;2023-05-07T06:14:51;12.00;99.90
61412;DHT22;47278;49.732;7.690;2023-05-07T06:17:17;12.10;99.90
61412;DHT22;47278;49.732;7.690;2023-05-07T06:19:43;12.10;99.90
61412;DHT22;47278;49.732;7.690;2023-05-07T06:22:08;12.20;99.90
61412;DHT22;47278;49.732;7.690;2023-05-07T06:24:34;12.20;99.90
61412;DHT22;47278;49.732;7.690;2023-05-07T06:26:59;12.30;99.90
61412;DHT22;47278;49.732;7.690;2023-05-07T06:29:25;12.30;99.90
61412;DHT22;47278;49.732;7.690;2023-05-07T06:31:54;12.50;99.90
61412;DHT22;47278;49.732;7.690;2023-05-07T06:34:19;12.50;99.90
61412;DHT22;47278;49.732;7.690;2023-05-07T06:36:45;12.60;99.90
61412;DHT22;47278;49.732;7.690;2023-05-07T06:39:10;12.60;99.90
61412;DHT22;47278;49.732;7.690;2023-05-07T06:41:36;12.70;99.90
61412;DHT22;47278;49.732;7.690;2023-05-07T06:44:02;12.80;99.90
61412;DHT22;47278;49.732;7.690;2023-05-07T06:46:29;12.80;99.90
61412;DHT22;47278;49.732;7.690;2023-05-07T06:48:54;12.90;99.90
61412;DHT22;47278;49.732;7.690;2023-05-07T06:51:20;12.90;99.90
61412;DHT22;47278;49.732;7.690;2023-05-07T06:53:45;13.00;99.90
61412;DHT22;47278;49.732;7.690;2023-05-07T06:56:11;13.10;99.90
61412;DHT22;47278;49.732;7.690;2023-05-07T06:58:37;13.30;99.90
61412;DHT22;47278;49.732;7.690;2023-05-07T07:01:02;13.30;99.90
61412;DHT22;47278;49.732;7.690;2023-05-07T07:03:28;13.30;99.90
61412;DHT22;47278;49.732;7.690;2023-05-07T07:05:54;13.40;99.90
61412;DHT22;47278;49.732;7.690;2023-05-07T07:08:20;13.40;99.90
61412;DHT22;47278;49.732;7.690;2023-05-07T07:10:46;13.50;99.90
61412;DHT22;47278;49.732;7.690;2023-05-07T07:13:12;13.60;99.90
61412;DHT22;47278;49.732;7.690;2023-05-07T07:15:38;13.70;99.90
61412;DHT22;47278;49.732;7.690;2023-05-07T07:18:03;13.80;99.90
61412;DHT22;47278;49.732;7.690;2023-05-07T07:20:29;13.80;99.90
61412;DHT22;47278;49.732;7.690;2023-05-07T07:22:55;14.00;99.90
61412;DHT22;47278;49.732;7.690;2023-05-07T07:25:20;14.00;99.90
61412;DHT22;47278;49.732;7.690;2023-05-07T07:27:46;14.00;99.90
61412;DHT22;47278;49.732;7.690;2023-05-07T07:30:11;14.20;99.90
61412;DHT22;47278;49.732;7.690;2023-05-07T07:32:37;14.40;99.90
61412;DHT22;47278;49.732;7.690;2023-05-07T07:35:02;14.40;99.90
61412;DHT22;47278;49.732;7.690;2023-05-07T07:37:28;14.50;99.90
61412;DHT22;47278;49.732;7.690;2023-05-07T07:39:55;14.70;99.90
61412;DHT22;47278;49.732;7.690;2023-05-07T07:42:20;14.80;99.90
61412;DHT22;47278;49.732;7.690;2023-05-07T07:44:46;15.10;99.90
61412;DHT22;47278;49.732;7.690;2023-05-07T07:47:11;15.20;99.90
61412;DHT22;47278;49.732;7.690;2023-05-07T07:49:37;15.30;99.90
61412;DHT22;47278;49.732;7.690;2023-05-07T07:52:02;15.50;99.90
61412;DHT22;47278;49.732;7.690;2023-05-07T07:54:28;15.70;99.90
61412;DHT22;47278;49.732;7.690;2023-05-07T07:56:54;14.50;99.90
61412;DHT22;47278;49.732;7.690;2023-05-07T07:59:20;15.80;99.90
61412;DHT22;47278;49.732;7.690;2023-05-07T08:01:45;16.10;99.90
61412;DHT22;47278;49.732;7.690;2023-05-07T08:04:13;16.10;99.90
61412;DHT22;47278;49.732;7.690;2023-05-07T08:06:39;16.10;99.90
61412;DHT22;47278;49.732;7.690;2023-05-07T08:09:04;16.30;99.90
61412;DHT22;47278;49.732;7.690;2023-05-07T08:11:30;16.60;99.90
61412;DHT22;47278;49.732;7.690;2023-05-07T08:13:55;16.70;99.90
61412;DHT22;47278;49.732;7.690;2023-05-07T08:16:21;16.80;99.90
61412;DHT22;47278;49.732;7.690;2023-05-07T08:18:47;16.90;99.90
61412;DHT22;47278;49.732;7.690;2023-05-07T08:21:13;17.10;99.90
61412;DHT22;47278;49.732;7.690;2023-05-07T08:23:38;17.10;99.90
61412;DHT22;47278;49.732;7.690;2023-05-07T08:26:04;19.20;99.90
61412;DHT22;47278;49.732;7.690;2023-05-07T08:28:29;17.50;99.90
61412;DHT22;47278;49.732;7.690;2023-05-07T08:30:55;17.60;99.90
61412;DHT22;47278;49.732;7.690;2023-05-07T08:33:22;17.60;99.90
61412;DHT22;47278;49.732;7.690;2023-05-07T08:35:47;17.60;99.90
61412;DHT22;47278;49.732;7.690;2023-05-07T08:38:13;17.70;99.90
61412;DHT22;47278;49.732;7.690;2023-05-07T08:40:39;17.70;99.90
61412;DHT22;47278;49.732;7.690;2023-05-07T08:43:06;17.70;99.90
61412;DHT22;47278;49.732;7.690;2023-05-07T08:45:34;17.80;99.90
61412;DHT22;47278;49.732;7.690;2023-05-07T08:48:02;17.80;99.90
61412;DHT22;47278;49.732;7.690;2023-05-07T08:50:28;17.80;99.90
61412;DHT22;47278;49.732;7.690;2023-05-07T08:52:54;17.80;99.90
61412;DHT22;47278;49.732;7.690;2023-05-07T08:55:19;17.80;99.90
61412;DHT22;47278;49.732;7.690;2023-05-07T08:57:45;18.00;99.90
61412;DHT22;47278;49.732;7.690;2023-05-07T09:00:12;18.20;99.90
61412;DHT22;47278;49.732;7.690;2023-05-07T09:02:37;18.30;99.90
61412;DHT22;47278;49.732;7.690;2023-05-07T09:05:03;18.30;99.90
61412;DHT22;47278;49.732;7.690;2023-05-07T09:07:29;18.50;99.90
61412;DHT22;47278;49.732;7.690;2023-05-07T09:09:55;18.60;99.90
61412;DHT22;47278;49.732;7.690;2023-05-07T09:12:22;18.70;99.90
61412;DHT22;47278;49.732;7.690;2023-05-07T09:14:48;18.90;99.90
61412;DHT22;47278;49.732;7.690;2023-05-07T09:17:15;18.90;99.90
61412;DHT22;47278;49.732;7.690;2023-05-07T09:19:40;19.00;99.90
61412;DHT22;47278;49.732;7.690;2023-05-07T09:22:06;19.20;99.90
61412;DHT22;47278;49.732;7.690;2023-05-07T09:24:34;19.30;99.90
61412;DHT22;47278;49.732;7.690;2023-05-07T09:27:00;19.30;99.90
61412;DHT22;47278;49.732;7.690;2023-05-07T09:29:26;19.40;99.90
61412;DHT22;47278;49.732;7.690;2023-05-07T09:31:54;19.40;99.90
61412;DHT22;47278;49.732;7.690;2023-05-07T09:34:20;19.40;99.90
61412;DHT22;47278;49.732;7.690;2023-05-07T09:36:45;19.50;99.90
61412;DHT22;47278;49.732;7.690;2023-05-07T09:39:11;19.70;99.90
61412;DHT22;47278;49.732;7.690;2023-05-07T09:41:45;19.60;99.90
61412;DHT22;47278;49.732;7.690;2023-05-07T09:44:10;19.50;99.90
61412;DHT22;47278;49.732;7.690;2023-05-07T09:46:36;19.70;99.90
61412;DHT22;47278;49.732;7.690;2023-05-07T09:49:03;20.30;99.90
61412;DHT22;47278;49.732;7.690;2023-05-07T09:54:03;20.80;99.90
61412;DHT22;47278;49.732;7.690;2023-05-07T09:56:30;21.00;99.90
61412;DHT22;47278;49.732;7.690;2023-05-07T09:58:58;21.10;99.90
61412;DHT22;47278;49.732;7.690;2023-05-07T10:01:24;21.20;99.90
61412;DHT22;47278;49.732;7.690;2023-05-07T10:03:50;21.20;99.90
61412;DHT22;47278;49.732;7.690;2023-05-07T10:06:16;22.00;99.90
61412;DHT22;47278;49.732;7.690;2023-05-07T10:08:42;21.40;99.90
61412;DHT22;47278;49.732;7.690;2023-05-07T10:11:08;21.60;99.90
61412;DHT22;47278;49.732;7.690;2023-05-07T10:13:35;21.60;99.90
61412;DHT22;47278;49.732;7.690;2023-05-07T10:16:04;21.60;99.90
61412;DHT22;47278;49.732;7.690;2023-05-07T10:18:30;21.60;99.90
61412;DHT22;47278;49.732;7.690;2023-05-07T10:21:06;21.70;99.90
61412;DHT22;47278;49.732;7.690;2023-05-07T10:23:33;22.00;99.90
61412;DHT22;47278;49.732;7.690;2023-05-07T10:26:00;21.40;99.90
61412;DHT22;47278;49.732;7.690;2023-05-07T10:28:27;21.60;99.90
61412;DHT22;47278;49.732;7.690;2023-05-07T10:33:22;21.40;99.90
61412;DHT22;47278;49.732;7.690;2023-05-07T10:35:49;21.50;99.90
61412;DHT22;47278;49.732;7.690;2023-05-07T10:38:14;21.50;99.90
61412;DHT22;47278;49.732;7.690;2023-05-07T10:40:40;21.60;99.90
61412;DHT22;47278;49.732;7.690;2023-05-07T10:43:06;21.70;99.90
61412;DHT22;47278;49.732;7.690;2023-05-07T10:45:32;21.60;99.90
61412;DHT22;47278;49.732;7.690;2023-05-07T10:50:45;21.50;99.90
61412;DHT22;47278;49.732;7.690;2023-05-07T10:55:50;21.80;99.90
61412;DHT22;47278;49.732;7.690;2023-05-07T11:00:48;21.90;99.90
61412;DHT22;47278;49.732;7.690;2023-05-07T11:03:13;21.60;99.90
61412;DHT22;47278;49.732;7.690;2023-05-07T11:05:40;21.90;99.90
61412;DHT22;47278;49.732;7.690;2023-05-07T11:08:06;22.00;99.90
61412;DHT22;47278;49.732;7.690;2023-05-07T11:10:47;21.90;99.90
61412;DHT22;47278;49.732;7.690;2023-05-07T11:13:12;22.10;99.90
61412;DHT22;47278;49.732;7.690;2023-05-07T11:15:40;22.10;99.90
61412;DHT22;47278;49.732;7.690;2023-05-07T11:18:07;22.10;99.90
61412;DHT22;47278;49.732;7.690;2023-05-07T11:26:05;23.10;99.90
61412;DHT22;47278;49.732;7.690;2023-05-07T11:28:33;23.30;99.90
61412;DHT22;47278;49.732;7.690;2023-05-07T11:31:01;23.00;99.90
61412;DHT22;47278;49.732;7.690;2023-05-07T11:33:27;23.20;99.90
61412;DHT22;47278;49.732;7.690;2023-05-07T11:35:53;23.60;99.90
61412;DHT22;47278;49.732;7.690;2023-05-07T11:38:19;23.90;99.90
61412;DHT22;47278;49.732;7.690;2023-05-07T11:40:51;23.70;99.90
61412;DHT22;47278;49.732;7.690;2023-05-07T11:43:16;23.50;99.90
61412;DHT22;47278;49.732;7.690;2023-05-07T11:45:42;23.70;99.90
61412;DHT22;47278;49.732;7.690;2023-05-07T11:48:08;24.10;99.90
61412;DHT22;47278;49.732;7.690;2023-05-07T11:50:33;24.10;99.90
61412;DHT22;47278;49.732;7.690;2023-05-07T11:52:59;24.10;99.90
61412;DHT22;47278;49.732;7.690;2023-05-07T11:55:24;23.60;99.90
61412;DHT22;47278;49.732;7.690;2023-05-07T11:57:51;23.30;99.90
61412;DHT22;47278;49.732;7.690;2023-05-07T12:00:17;23.30;99.90
61412;DHT22;47278;49.732;7.690;2023-05-07T12:02:44;23.00;99.90
61412;DHT22;47278;49.732;7.690;2023-05-07T12:05:10;23.60;99.90
61412;DHT22;47278;49.732;7.690;2023-05-07T12:07:35;23.80;99.90
61412;DHT22;47278;49.732;7.690;2023-05-07T12:10:06;24.30;99.90
61412;DHT22;47278;49.732;7.690;2023-05-07T12:12:37;24.50;99.90
61412;DHT22;47278;49.732;7.690;2023-05-07T12:15:03;23.60;99.90
61412;DHT22;47278;49.732;7.690;2023-05-07T12:17:29;24.40;99.90
61412;DHT22;47278;49.732;7.690;2023-05-07T12:19:54;24.40;99.90
61412;DHT22;47278;49.732;7.690;2023-05-07T12:22:20;24.70;99.90
61412;DHT22;47278;49.732;7.690;2023-05-07T12:24:49;24.90;99.90
61412;DHT22;47278;49.732;7.690;2023-05-07T12:27:15;25.10;99.90
61412;DHT22;47278;49.732;7.690;2023-05-07T12:29:47;25.40;99.90
61412;DHT22;47278;49.732;7.690;2023-05-07T12:32:16;25.40;99.90
61412;DHT22;47278;49.732;7.690;2023-05-07T12:34:42;25.40;99.90
61412;DHT22;47278;49.732;7.690;2023-05-07T12:37:08;25.40;99.90
61412;DHT22;47278;49.732;7.690;2023-05-07T12:39:33;25.90;99.90
61412;DHT22;47278;49.732;7.690;2023-05-07T12:41:59;26.00;99.90
61412;DHT22;47278;49.732;7.690;2023-05-07T12:44:25;25.70;99.90
61412;DHT22;47278;49.732;7.690;2023-05-07T12:46:53;26.10;99.90
61412;DHT22;47278;49.732;7.690;2023-05-07T12:49:19;26.10;99.90
61412;DHT22;47278;49.732;7.690;2023-05-07T12:51:48;25.40;99.90
61412;DHT22;47278;49.732;7.690;2023-05-07T12:54:27;25.70;99.90
61412;DHT22;47278;49.732;7.690;2023-05-07T12:56:59;26.20;99.90
61412;DHT22;47278;49.732;7.690;2023-05-07T12:59:39;25.90;99.90
61412;DHT22;47278;49.732;7.690;2023-05-07T13:02:05;24.70;99.90
61412;DHT22;47278;49.732;7.690;2023-05-07T13:04:30;24.80;99.90
61412;DHT22;47278;49.732;7.690;2023-05-07T13:06:56;24.60;99.90
61412;DHT22;47278;49.732;7.690;2023-05-07T13:09:21;24.40;99.90
61412;DHT22;47278;49.732;7.690;2023-05-07T13:11:47;24.00;99.90
61412;DHT22;47278;49.732;7.690;2023-05-07T13:14:13;24.00;99.90
61412;DHT22;47278;49.732;7.690;2023-05-07T13:16:38;23.90;99.90
61412;DHT22;47278;49.732;7.690;2023-05-07T13:19:04;21.90;99.90
61412;DHT22;47278;49.732;7.690;2023-05-07T13:21:29;23.70;99.90
61412;DHT22;47278;49.732;7.690;2023-05-07T13:23:57;23.90;99.90
61412;DHT22;47278;49.732;7.690;2023-05-07T13:26:23;24.20;99.90
61412;DHT22;47278;49.732;7.690;2023-05-07T13:28:49;24.80;99.90
61412;DHT22;47278;49.732;7.690;2023-05-07T13:31:14;25.10;99.90
61412;DHT22;47278;49.732;7.690;2023-05-07T13:33:40;23.50;99.90
61412;DHT22;47278;49.732;7.690;2023-05-07T13:36:05;24.90;99.90
61412;DHT22;47278;49.732;7.690;2023-05-07T13:38:31;25.00;99.90
61412;DHT22;47278;49.732;7.690;2023-05-07T13:40:56;24.80;99.90
61412;DHT22;47278;49.732;7.690;2023-05-07T13:43:22;24.80;99.90
61412;DHT22;47278;49.732;7.690;2023-05-07T13:45:47;24.90;99.90
61412;DHT22;47278;49.732;7.690;2023-05-07T13:48:13;25.10;99.90
61412;DHT22;47278;49.732;7.690;2023-05-07T13:50:38;24.70;99.90
61412;DHT22;47278;49.732;7.690;2023-05-07T13:53:04;24.30;99.90
61412;DHT22;47278;49.732;7.690;2023-05-07T13:55:30;24.00;99.90
61412;DHT22;47278;49.732;7.690;2023-05-07T13:57:59;23.30;99.90
61412;DHT22;47278;49.732;7.690;2023-05-07T14:00:25;22.70;99.90
61412;DHT22;47278;49.732;7.690;2023-05-07T14:02:51;22.60;99.90
61412;DHT22;47278;49.732;7.690;2023-05-07T14:05:17;22.40;99.90
61412;DHT22;47278;49.732;7.690;2023-05-07T14:07:42;22.30;99.90
61412;DHT22;47278;49.732;7.690;2023-05-07T14:10:08;22.20;99.90
61412;DHT22;47278;49.732;7.690;2023-05-07T14:12:34;22.10;99.90
61412;DHT22;47278;49.732;7.690;2023-05-07T14:15:00;21.90;99.90
61412;DHT22;47278;49.732;7.690;2023-05-07T14:17:26;21.90;99.90
61412;DHT22;47278;49.732;7.690;2023-05-07T14:19:52;21.70;99.90
61412;DHT22;47278;49.732;7.690;2023-05-07T14:22:21;21.60;99.90
61412;DHT22;47278;49.732;7.690;2023-05-07T14:24:47;21.50;99.90
61412;DHT22;47278;49.732;7.690;2023-05-07T14:27:13;21.30;99.90
61412;DHT22;47278;49.732;7.690;2023-05-07T14:29:38;21.20;99.90
61412;DHT22;47278;49.732;7.690;2023-05-07T14:32:04;21.10;99.90
61412;DHT22;47278;49.732;7.690;2023-05-07T14:34:30;21.00;99.90
61412;DHT22;47278;49.732;7.690;2023-05-07T14:36:56;21.00;99.90
61412;DHT22;47278;49.732;7.690;2023-05-07T14:39:22;20.80;99.90
61412;DHT22;47278;49.732;7.690;2023-05-07T14:41:47;19.50;99.90
61412;DHT22;47278;49.732;7.690;2023-05-07T14:44:13;18.90;99.90
61412;DHT22;47278;49.732;7.690;2023-05-07T14:46:38;18.70;99.90
61412;DHT22;47278;49.732;7.690;2023-05-07T14:49:04;18.40;99.90
61412;DHT22;47278;49.732;7.690;2023-05-07T14:51:30;18.20;99.90
61412;DHT22;47278;49.732;7.690;2023-05-07T14:53:56;17.80;99.90
61412;DHT22;47278;49.732;7.690;2023-05-07T14:56:21;17.80;99.90
61412;DHT22;47278;49.732;7.690;2023-05-07T14:58:47;17.70;99.90
61412;DHT22;47278;49.732;7.690;2023-05-07T15:01:13;17.50;99.90
61412;DHT22;47278;49.732;7.690;2023-05-07T15:03:39;17.10;99.90
61412;DHT22;47278;49.732;7.690;2023-05-07T15:06:04;17.20;99.90
61412;DHT22;47278;49.732;7.690;2023-05-07T15:08:30;17.10;99.90
61412;DHT22;47278;49.732;7.690;2023-05-07T15:10:56;17.00;99.90
61412;DHT22;47278;49.732;7.690;2023-05-07T15:13:21;17.00;99.90
61412;DHT22;47278;49.732;7.690;2023-05-07T15:15:47;16.80;99.90
61412;DHT22;47278;49.732;7.690;2023-05-07T15:18:13;16.90;99.90
61412;DHT22;47278;49.732;7.690;2023-05-07T15:20:38;16.90;99.90
61412;DHT22;47278;49.732;7.690;2023-05-07T15:23:05;17.10;99.90
61412;DHT22;47278;49.732;7.690;2023-05-07T15:25:31;16.80;99.90
61412;DHT22;47278;49.732;7.690;2023-05-07T15:27:58;16.70;99.90
61412;DHT22;47278;49.732;7.690;2023-05-07T15:30:23;16.70;99.90
61412;DHT22;47278;49.732;7.690;2023-05-07T15:32:49;16.70;99.90
61412;DHT22;47278;49.732;7.690;2023-05-07T15:35:16;16.50;99.90
61412;DHT22;47278;49.732;7.690;2023-05-07T15:37:47;16.40;99.90
61412;DHT22;47278;49.732;7.690;2023-05-07T15:40:14;16.40;99.90
61412;DHT22;47278;49.732;7.690;2023-05-07T15:42:40;16.50;99.90
61412;DHT22;47278;49.732;7.690;2023-05-07T15:45:05;16.50;99.90
61412;DHT22;47278;49.732;7.690;2023-05-07T15:47:32;16.50;99.90